»·PEaware :: FDX3258 KLAX-KFAT

FDX3258 :: KLAX-KFAT

FLIGHT INFORMATION

Flight Status: Arrived
Operator:
Federal Express
More flights by this operator :: More flights under this callsign
Pilot: Thomas S. (17015)
Aircraft: BOEING 757-200
(B752)
More flights by this aircraft type
Origin: KLAX Los Angeles Intl
United States
Destination: KFAT Fresno Yosemite Intl
United States
More flights between these airports :: More routes between these airports
Route: LADYJ4 CSTRO TTE ALTTA8
File this flight plan on PilotEdge
Remarks: RMK / SIMBRIEF
Altitude:
(Current/Filed)
24,000ft
Speed:
(Current/Filed)
431kts
Departed: 06-May-19 12:16 PM
Arrived: 06-May-19 12:58 PM
Distance/Time
Traveled:
182nm/0:41
Distance/Time
To Go:
Arrived

Flight Plot

Page will automatically refresh every two minutes.

Flight plan parsing failed; only flown route is shown


Map Options




Map Legend


Flown Route
Filed Route
Departure Airport
Arrival Airport
Navaid (VOR, NDB)
Fix

Horizontal Profiles

Position Reports

Time Latitude Longitude Heading Altitude Ground
Speed
06-May-19 11:46 33.934124 -118.387048 173 111ft 0kts
06-May-19 11:47 33.934124 -118.387048 173 111ft 0kts
06-May-19 11:48 33.934124 -118.387048 173 111ft 0kts
06-May-19 11:49 33.934124 -118.387048 173 111ft 0kts
06-May-19 11:50 33.934124 -118.387048 173 111ft 0kts
06-May-19 11:51 33.934124 -118.387048 173 111ft 0kts
06-May-19 11:52 33.934124 -118.387048 173 111ft 0kts
06-May-19 11:53 33.934124 -118.387048 173 111ft 0kts
06-May-19 11:54 33.934124 -118.387048 173 111ft 0kts
06-May-19 11:55 33.934124 -118.387048 173 111ft 0kts
06-May-19 11:56 33.934124 -118.387048 173 111ft 0kts
06-May-19 11:57 33.934124 -118.387048 173 111ft 0kts
06-May-19 11:58 33.934124 -118.387048 173 111ft 0kts
06-May-19 11:59 33.934124 -118.387048 173 111ft 0kts
06-May-19 12:00 33.934124 -118.387048 173 111ft 0kts
06-May-19 12:01 33.934124 -118.387048 173 111ft 0kts
06-May-19 12:02 33.934124 -118.387048 173 111ft 0kts
06-May-19 12:03 33.934124 -118.387048 173 111ft 0kts
06-May-19 12:04 33.934665 -118.387074 209 110ft 2kts
06-May-19 12:05 33.934815 -118.386867 265 110ft 0kts
06-May-19 12:06 33.934815 -118.386868 265 110ft 0kts
06-May-19 12:07 33.934815 -118.386868 265 110ft 0kts
06-May-19 12:08 33.934815 -118.386868 265 110ft 0kts
06-May-19 12:09 33.934815 -118.386868 265 110ft 0kts
06-May-19 12:10 33.934815 -118.386868 265 110ft 0kts
06-May-19 12:11 33.934976 -118.387736 323 111ft 6kts
06-May-19 12:12 33.935769 -118.386063 81 110ft 10kts
06-May-19 12:13 33.936339 -118.382877 28 107ft 4kts
06-May-19 12:14 33.937273 -118.383086 280 107ft 5kts
06-May-19 12:15 33.935303 -118.403426 262 315ft 157kts
06-May-19 12:16 33.928740 -118.461680 261 1932ft 178kts
06-May-19 12:17 33.959199 -118.522420 285 3141ft 241kts
06-May-19 12:18 33.979667 -118.595026 316 3287ft 249kts
06-May-19 12:19 34.003886 -118.669079 315 5010ft 258kts
06-May-19 12:20 34.073098 -118.674198 5 5015ft 261kts
06-May-19 12:21 34.141223 -118.657823 9 7328ft 270kts
06-May-19 12:22 34.208829 -118.642020 10 8072ft 281kts
06-May-19 12:23 34.278928 -118.640623 348 10222ft 293kts
06-May-19 12:24 34.365153 -118.659386 348 12263ft 320kts
06-May-19 12:25 34.456042 -118.679289 350 14864ft 316kts
06-May-19 12:26 34.540126 -118.695657 350 16860ft 316kts
06-May-19 12:27 34.628016 -118.712904 350 18517ft 327kts
06-May-19 12:28 34.718655 -118.731322 344 20171ft 336kts
06-May-19 12:29 34.802298 -118.784170 330 23237ft 350kts
06-May-19 12:30 34.889647 -118.844025 331 24012ft 377kts
06-May-19 12:31 34.989033 -118.903773 348 24004ft 407kts
06-May-19 12:32 35.099660 -118.906498 358 23994ft 404kts
06-May-19 12:33 35.209587 -118.919171 355 23734ft 408kts
06-May-19 12:34 35.314967 -118.934034 355 22313ft 392kts
06-May-19 12:35 35.418428 -118.948889 355 20903ft 384kts
06-May-19 12:36 35.522928 -118.963955 355 19462ft 377kts
06-May-19 12:37 35.625325 -118.978759 355 18042ft 369kts
06-May-19 12:38 35.725161 -118.993223 355 16678ft 360kts
06-May-19 12:39 35.822813 -119.007419 355 15330ft 351kts
06-May-19 12:40 35.918413 -119.022274 347 14037ft 343kts
06-May-19 12:41 36.008632 -119.063678 341 13462ft 348kts
06-May-19 12:42 36.099209 -119.106736 340 11349ft 346kts
06-May-19 12:43 36.180384 -119.145479 339 9650ft 281kts
06-May-19 12:44 36.251121 -119.179286 339 8608ft 269kts
06-May-19 12:45 36.320354 -119.212462 339 7525ft 266kts
06-May-19 12:46 36.384631 -119.256929 322 6378ft 262kts
06-May-19 12:47 36.440627 -119.310289 322 4923ft 241kts
06-May-19 12:48 36.493176 -119.359934 322 3420ft 231kts
06-May-19 12:49 36.544967 -119.408532 322 3416ft 233kts
06-May-19 12:50 36.596877 -119.457232 322 3405ft 223kts
06-May-19 12:51 36.641853 -119.499312 322 3413ft 191kts
06-May-19 12:52 36.678287 -119.545355 305 3360ft 176kts
06-May-19 12:53 36.705590 -119.592713 304 2543ft 163kts
06-May-19 12:54 36.728646 -119.632528 305 1829ft 131kts
06-May-19 12:55 36.749291 -119.669414 304 1064ft 119kts
06-May-19 12:56 36.768445 -119.702888 303 386ft 112kts
06-May-19 12:57 36.778375 -119.720201 305 341ft 21kts
06-May-19 12:58 36.780914 -119.720946 124 341ft 19kts
06-May-19 12:59 36.778364 -119.715281 40 341ft 14kts
06-May-19 13:00 36.779380 -119.714348 35 341ft 0kts
06-May-19 13:01 36.779793 -119.713923 52 341ft 2kts
06-May-19 13:02 36.779718 -119.713272 119 341ft 0kts
06-May-19 13:03 36.779718 -119.713272 119 341ft 0kts
06-May-19 13:04 36.779718 -119.713272 119 341ft 0kts
06-May-19 13:05 36.779718 -119.713272 119 341ft 0kts
06-May-19 13:06 36.779718 -119.713272 119 341ft 0kts
06-May-19 13:07 36.779718 -119.713272 119 341ft 0kts
06-May-19 13:08 36.779718 -119.713272 119 341ft 0kts
06-May-19 13:09 36.779718 -119.713272 119 341ft 0kts
06-May-19 13:10 36.779718 -119.713272 119 341ft 0kts
06-May-19 13:11 36.779718 -119.713272 119 341ft 0kts

Navigation Log

Ident Type
Flight plan parsing failed, navigation log unavailable